createdAt,value
2018-09-13T00:01:54.960Z,99.90
2018-09-13T00:04:27.967Z,99.90
2018-09-13T00:06:56.712Z,99.90
2018-09-13T00:09:25.483Z,99.90
2018-09-13T00:11:54.041Z,99.90
2018-09-13T00:14:24.493Z,99.90
2018-09-13T00:16:53.341Z,99.90
2018-09-13T00:19:23.116Z,99.90
2018-09-13T00:21:52.581Z,99.90
2018-09-13T00:24:23.664Z,99.90
2018-09-13T00:26:52.383Z,99.90
2018-09-13T00:29:22.343Z,99.90
2018-09-13T00:31:51.127Z,99.90
2018-09-13T00:34:20.044Z,99.90
2018-09-13T00:36:49.010Z,99.90
2018-09-13T00:39:18.010Z,99.90
2018-09-13T00:41:47.086Z,99.90
2018-09-13T00:44:15.610Z,99.90
2018-09-13T00:46:44.118Z,99.90
2018-09-13T00:49:13.876Z,99.90
2018-09-13T00:51:42.565Z,99.90
2018-09-13T00:54:11.468Z,99.90
2018-09-13T00:56:40.237Z,99.90
2018-09-13T00:59:09.126Z,99.90
2018-09-13T01:01:38.861Z,99.90
2018-09-13T01:04:08.981Z,99.90
2018-09-13T01:06:38.206Z,99.90
2018-09-13T01:09:09.700Z,99.90
2018-09-13T01:11:45.275Z,99.90
2018-09-13T01:14:16.222Z,99.90
2018-09-13T01:16:45.829Z,99.90
2018-09-13T01:19:15.526Z,99.90
2018-09-13T01:21:44.787Z,99.90
2018-09-13T01:24:13.854Z,99.90
2018-09-13T01:26:43.009Z,99.90
2018-09-13T01:29:11.770Z,99.90
2018-09-13T01:31:40.424Z,99.90
2018-09-13T01:34:09.173Z,99.90
2018-09-13T01:36:38.348Z,99.90
2018-09-13T01:39:08.177Z,99.90
2018-09-13T01:41:36.865Z,99.90
2018-09-13T01:44:05.622Z,99.90
2018-09-13T01:46:34.420Z,99.90
2018-09-13T01:49:03.256Z,99.90
2018-09-13T01:51:32.032Z,99.90
2018-09-13T01:54:00.996Z,99.90
2018-09-13T01:56:29.843Z,99.90
2018-09-13T01:58:58.648Z,99.90
2018-09-13T02:01:27.265Z,99.90
2018-09-13T02:03:55.900Z,99.90
2018-09-13T02:06:24.608Z,99.90
2018-09-13T02:08:54.070Z,99.90
2018-09-13T02:11:22.950Z,99.90
2018-09-13T02:13:51.600Z,99.90
2018-09-13T02:16:20.528Z,99.90
2018-09-13T02:18:49.318Z,99.90
2018-09-13T02:21:18.041Z,99.90
2018-09-13T02:23:46.656Z,99.90
2018-09-13T02:26:15.278Z,99.90
2018-09-13T02:28:44.375Z,99.90
2018-09-13T02:31:13.836Z,99.90
2018-09-13T02:33:42.620Z,99.90
2018-09-13T02:36:11.208Z,99.90
2018-09-13T02:38:40.467Z,99.90
2018-09-13T02:41:09.813Z,99.90
2018-09-13T02:43:39.012Z,99.90
2018-09-13T02:46:08.311Z,99.90
2018-09-13T02:48:39.838Z,99.90
2018-09-13T02:51:08.649Z,99.90
2018-09-13T02:53:37.514Z,99.90
2018-09-13T02:56:08.105Z,99.90
2018-09-13T02:58:36.863Z,99.90
2018-09-13T03:01:07.033Z,99.90
2018-09-13T03:03:36.310Z,99.90
2018-09-13T03:06:05.073Z,99.90
2018-09-13T03:08:33.892Z,99.90
2018-09-13T03:11:02.655Z,99.90
2018-09-13T03:13:31.326Z,99.90
2018-09-13T03:16:01.080Z,99.90
2018-09-13T03:18:30.801Z,99.90
2018-09-13T03:20:59.988Z,99.90
2018-09-13T03:23:28.914Z,99.90
2018-09-13T03:25:58.191Z,99.90
2018-09-13T03:28:30.080Z,99.90
2018-09-13T03:31:04.393Z,99.90
2018-09-13T03:33:35.874Z,99.90
2018-09-13T03:36:05.482Z,99.90
2018-09-13T03:38:35.619Z,99.90
2018-09-13T03:41:04.880Z,99.90
2018-09-13T03:43:35.060Z,99.90
2018-09-13T03:46:04.423Z,99.90
2018-09-13T03:48:33.898Z,99.90
2018-09-13T03:51:03.791Z,99.90
2018-09-13T03:53:34.053Z,99.90
2018-09-13T03:56:04.036Z,99.90
2018-09-13T03:58:34.673Z,99.90
2018-09-13T04:01:05.089Z,99.90
2018-09-13T04:03:35.517Z,99.90
2018-09-13T04:06:06.238Z,99.90
2018-09-13T04:08:35.475Z,99.90
2018-09-13T04:11:06.874Z,99.90
2018-09-13T04:13:37.215Z,99.90
2018-09-13T04:16:08.230Z,99.90
2018-09-13T04:18:37.593Z,99.90
2018-09-13T04:21:09.009Z,99.90
2018-09-13T04:23:39.640Z,99.90
2018-09-13T04:26:09.796Z,99.90
2018-09-13T04:28:43.310Z,99.90
2018-09-13T04:31:14.364Z,99.90
2018-09-13T04:34:07.637Z,99.90
2018-09-13T04:39:35.995Z,99.90
2018-09-13T04:42:13.365Z,99.90
2018-09-13T04:44:44.470Z,99.90
2018-09-13T04:47:22.056Z,99.90
2018-09-13T04:49:52.268Z,99.90
2018-09-13T04:52:26.484Z,99.90
2018-09-13T04:54:59.881Z,99.90
2018-09-13T04:57:32.300Z,99.90
2018-09-13T05:00:13.571Z,99.90
2018-09-13T05:02:42.597Z,99.90
2018-09-13T05:05:11.611Z,99.90
2018-09-13T05:07:43.614Z,99.90
2018-09-13T05:10:12.743Z,99.90
2018-09-13T05:12:41.692Z,99.90
2018-09-13T05:15:10.596Z,99.90
2018-09-13T05:17:40.551Z,99.90
2018-09-13T05:20:11.424Z,99.90
2018-09-13T05:22:41.837Z,99.90
2018-09-13T05:25:10.295Z,99.90
2018-09-13T05:27:38.930Z,99.90
2018-09-13T05:30:08.222Z,99.90
2018-09-13T05:32:41.709Z,99.90
2018-09-13T05:35:10.594Z,99.90
2018-09-13T05:37:39.327Z,99.90
2018-09-13T05:40:08.192Z,99.90
2018-09-13T05:42:36.876Z,99.90
2018-09-13T05:45:05.657Z,99.90
2018-09-13T05:47:34.336Z,99.90
2018-09-13T05:50:02.855Z,99.90
2018-09-13T05:52:31.513Z,99.90
2018-09-13T05:55:00.182Z,99.90
2018-09-13T05:57:28.787Z,99.90
2018-09-13T05:59:57.371Z,99.90
2018-09-13T06:02:26.712Z,99.90
2018-09-13T06:04:59.000Z,99.90
2018-09-13T06:07:27.624Z,99.90
2018-09-13T06:09:56.089Z,99.90
2018-09-13T06:12:24.619Z,99.90
2018-09-13T06:14:53.051Z,99.90
2018-09-13T06:17:21.466Z,99.90
2018-09-13T06:19:49.977Z,99.90
2018-09-13T06:22:18.645Z,99.90
2018-09-13T06:24:47.233Z,99.90
2018-09-13T06:27:16.661Z,99.90
2018-09-13T06:29:45.104Z,99.90
2018-09-13T06:32:13.712Z,99.90
2018-09-13T06:34:42.247Z,99.90
2018-09-13T06:37:10.665Z,99.90
2018-09-13T06:39:39.320Z,99.90
2018-09-13T06:42:07.742Z,99.90
2018-09-13T06:44:36.303Z,99.90
2018-09-13T06:47:04.895Z,99.90
2018-09-13T06:49:33.749Z,99.90
2018-09-13T06:52:02.267Z,99.90
2018-09-13T06:54:30.894Z,99.90
2018-09-13T06:56:59.333Z,99.90
2018-09-13T06:59:28.060Z,99.90
2018-09-13T07:01:56.506Z,99.90
2018-09-13T07:04:25.073Z,99.90
2018-09-13T07:06:53.583Z,99.90
2018-09-13T07:09:22.041Z,99.90
2018-09-13T07:11:50.730Z,99.90
2018-09-13T07:14:19.279Z,99.90
2018-09-13T07:16:47.855Z,99.90
2018-09-13T07:19:16.359Z,99.90
2018-09-13T07:21:44.967Z,99.90
2018-09-13T07:24:13.463Z,99.90
2018-09-13T07:26:41.788Z,99.90
2018-09-13T07:29:10.262Z,99.90
2018-09-13T07:31:38.651Z,99.90
2018-09-13T07:34:07.595Z,99.90
2018-09-13T07:36:36.029Z,99.90
2018-09-13T07:39:09.679Z,99.70
2018-09-13T07:41:38.096Z,99.70
2018-09-13T07:44:06.569Z,99.50
2018-09-13T07:46:35.317Z,99.40
2018-09-13T07:49:03.932Z,99.80
2018-09-13T07:51:32.412Z,98.80
2018-09-13T07:54:00.956Z,99.00
2018-09-13T07:56:29.470Z,98.80
2018-09-13T07:58:57.909Z,98.10
2018-09-13T08:01:26.374Z,98.20
2018-09-13T08:03:55.050Z,98.10
2018-09-13T08:06:23.776Z,98.20
2018-09-13T08:08:52.975Z,98.40
2018-09-13T08:11:21.838Z,98.10
2018-09-13T08:13:50.536Z,98.70
2018-09-13T08:16:19.815Z,97.80
2018-09-13T08:18:48.261Z,98.00
2018-09-13T08:21:16.956Z,98.10
2018-09-13T08:23:46.098Z,98.50
2018-09-13T08:26:14.821Z,98.20
2018-09-13T08:28:43.336Z,97.60
2018-09-13T08:31:13.516Z,97.80
2018-09-13T08:33:42.037Z,98.00
2018-09-13T08:36:10.563Z,98.00
2018-09-13T08:38:39.060Z,97.20
2018-09-13T08:41:07.533Z,96.80
2018-09-13T08:43:35.947Z,97.00
2018-09-13T08:46:04.418Z,96.90
2018-09-13T08:48:33.269Z,97.10
2018-09-13T08:51:01.737Z,95.50
2018-09-13T08:53:30.162Z,96.40
2018-09-13T08:55:58.591Z,96.00
2018-09-13T08:58:27.034Z,95.60
2018-09-13T09:00:58.099Z,94.90
2018-09-13T09:03:26.594Z,94.70
2018-09-13T09:05:55.175Z,95.20
2018-09-13T09:08:24.731Z,94.70
2018-09-13T09:10:53.155Z,95.10
2018-09-13T09:13:21.654Z,95.50
2018-09-13T09:15:50.212Z,95.30
2018-09-13T09:18:24.994Z,95.00
2018-09-13T09:20:53.308Z,93.30
2018-09-13T09:23:21.715Z,93.20
2018-09-13T09:25:51.100Z,94.00
2018-09-13T09:28:19.537Z,93.40
2018-09-13T09:30:48.005Z,93.50
2018-09-13T09:33:16.552Z,93.40
2018-09-13T09:35:45.086Z,93.50
2018-09-13T09:38:14.304Z,93.70
2018-09-13T09:40:42.874Z,93.00
2018-09-13T09:43:11.439Z,92.90
2018-09-13T09:45:40.247Z,92.70
2018-09-13T09:48:08.902Z,93.10
2018-09-13T09:50:37.459Z,92.80
2018-09-13T09:53:06.725Z,92.60
2018-09-13T09:55:35.346Z,92.00
2018-09-13T09:58:03.903Z,91.20
2018-09-13T10:00:37.630Z,90.90
2018-09-13T10:03:06.226Z,91.10
2018-09-13T10:05:34.679Z,91.10
2018-09-13T10:08:03.136Z,90.80
2018-09-13T10:10:31.718Z,90.20
2018-09-13T10:13:00.513Z,90.00
2018-09-13T10:15:34.423Z,90.00
2018-09-13T10:18:08.318Z,90.40
2018-09-13T10:20:42.583Z,89.90
2018-09-13T10:23:16.400Z,88.10
2018-09-13T10:25:50.008Z,87.60
2018-09-13T10:28:24.287Z,87.50
2018-09-13T10:30:58.196Z,89.20
2018-09-13T10:33:32.352Z,89.10
2018-09-13T10:36:06.358Z,87.40
2018-09-13T10:38:40.073Z,87.90
2018-09-13T10:41:13.942Z,87.10
2018-09-13T10:43:47.741Z,86.00
2018-09-13T10:46:21.651Z,85.70
2018-09-13T10:48:55.404Z,85.90
2018-09-13T10:51:29.330Z,83.70
2018-09-13T10:54:03.930Z,82.90
2018-09-13T10:56:32.350Z,83.90
2018-09-13T10:59:00.942Z,85.30
2018-09-13T11:01:29.417Z,86.30
2018-09-13T11:03:57.848Z,82.70
2018-09-13T11:06:26.355Z,83.30
2018-09-13T11:08:54.789Z,84.40
2018-09-13T11:11:23.304Z,81.90
2018-09-13T11:13:54.155Z,79.00
2018-09-13T11:16:22.668Z,77.20
2018-09-13T11:18:51.115Z,75.40
2018-09-13T11:21:19.627Z,72.80
2018-09-13T11:23:48.038Z,72.70
2018-09-13T11:26:16.458Z,71.30
2018-09-13T11:28:45.011Z,68.80
2018-09-13T11:31:13.503Z,67.90
2018-09-13T11:33:42.036Z,66.60
2018-09-13T11:36:10.519Z,63.80
2018-09-13T11:38:38.901Z,61.50
2018-09-13T11:41:07.432Z,63.80
2018-09-13T11:43:35.761Z,60.30
2018-09-13T11:46:04.261Z,59.20
2018-09-13T11:48:32.764Z,59.20
2018-09-13T11:51:01.139Z,57.00
2018-09-13T11:53:29.580Z,55.60
2018-09-13T11:55:58.026Z,56.10
2018-09-13T11:58:26.411Z,54.80
2018-09-13T12:00:54.858Z,54.20
2018-09-13T12:03:23.248Z,53.10
2018-09-13T12:05:51.740Z,52.60
2018-09-13T12:08:20.130Z,50.90
2018-09-13T12:10:48.838Z,51.40
2018-09-13T12:13:17.301Z,49.30
2018-09-13T12:15:45.679Z,47.00
2018-09-13T12:18:14.185Z,46.70
2018-09-13T12:20:42.687Z,48.30
2018-09-13T12:23:11.229Z,46.80
2018-09-13T12:25:39.668Z,50.80
2018-09-13T12:28:08.061Z,47.50
2018-09-13T12:30:36.486Z,47.60
2018-09-13T12:33:05.035Z,43.20
2018-09-13T12:35:33.582Z,44.90
2018-09-13T12:38:02.009Z,43.80
2018-09-13T12:40:30.494Z,48.10
2018-09-13T12:42:58.936Z,43.50
2018-09-13T12:45:27.394Z,45.40
2018-09-13T12:47:55.861Z,43.00
2018-09-13T12:50:24.380Z,42.20
2018-09-13T12:52:52.836Z,46.70
2018-09-13T12:55:21.392Z,42.80
2018-09-13T12:57:49.876Z,42.00
2018-09-13T13:00:18.341Z,47.20
2018-09-13T13:02:46.797Z,44.70
2018-09-13T13:05:15.302Z,43.80
2018-09-13T13:07:43.775Z,40.50
2018-09-13T13:10:12.133Z,43.10
2018-09-13T13:12:40.506Z,41.00
2018-09-13T13:15:08.863Z,45.10
2018-09-13T13:17:37.280Z,44.60
2018-09-13T13:20:05.795Z,40.90
2018-09-13T13:22:42.381Z,41.70
2018-09-13T13:25:12.796Z,42.70
2018-09-13T13:27:41.125Z,43.20
2018-09-13T13:30:09.515Z,40.00
2018-09-13T13:32:38.127Z,39.00
2018-09-13T13:35:06.572Z,41.00
2018-09-13T13:37:38.668Z,44.20
2018-09-13T13:40:07.088Z,39.50
2018-09-13T13:42:35.585Z,39.00
2018-09-13T13:45:04.209Z,41.60
2018-09-13T13:47:32.619Z,39.60
2018-09-13T13:50:01.043Z,38.70
2018-09-13T13:52:29.394Z,38.70
2018-09-13T13:54:57.786Z,39.20
2018-09-13T13:57:27.259Z,39.80
2018-09-13T13:59:55.718Z,40.10
2018-09-13T14:02:24.062Z,40.20
2018-09-13T14:04:52.471Z,37.00
2018-09-13T14:07:20.906Z,35.90
2018-09-13T14:09:49.299Z,37.80
2018-09-13T14:12:17.740Z,40.80
2018-09-13T14:14:46.178Z,38.00
2018-09-13T14:17:14.668Z,35.30
2018-09-13T14:19:43.195Z,37.40
2018-09-13T14:22:11.616Z,37.00
2018-09-13T14:24:39.973Z,36.30
2018-09-13T14:27:08.376Z,34.60
2018-09-13T14:29:36.741Z,35.00
2018-09-13T14:32:05.734Z,36.20
2018-09-13T14:34:34.314Z,36.50
2018-09-13T14:37:02.653Z,35.80
2018-09-13T14:39:31.104Z,35.00
2018-09-13T14:41:59.470Z,33.70
2018-09-13T14:44:27.965Z,36.50
2018-09-13T14:46:56.415Z,36.30
2018-09-13T14:49:24.830Z,37.30
2018-09-13T14:51:53.311Z,37.30
2018-09-13T14:54:21.777Z,36.90
2018-09-13T14:56:50.131Z,36.30
2018-09-13T14:59:18.762Z,37.30
2018-09-13T15:01:47.282Z,36.80
2018-09-13T15:04:15.725Z,37.80
2018-09-13T15:06:44.100Z,39.50
2018-09-13T15:09:13.545Z,40.10
2018-09-13T15:11:42.298Z,40.30
2018-09-13T15:14:10.703Z,40.20
2018-09-13T15:16:40.016Z,39.10
2018-09-13T15:19:08.468Z,38.70
2018-09-13T15:21:36.840Z,40.30
2018-09-13T15:24:05.229Z,39.90
2018-09-13T15:26:33.662Z,38.50
2018-09-13T15:29:02.112Z,40.10
2018-09-13T15:31:30.533Z,43.70
2018-09-13T15:33:58.891Z,44.60
2018-09-13T15:36:27.511Z,49.00
2018-09-13T15:38:55.943Z,55.10
2018-09-13T15:41:24.324Z,58.60
2018-09-13T15:43:53.319Z,59.60
2018-09-13T15:46:22.086Z,59.60
2018-09-13T15:48:50.512Z,62.60
2018-09-13T15:51:18.966Z,65.10
2018-09-13T15:53:47.339Z,64.80
2018-09-13T15:56:16.402Z,64.80
2018-09-13T15:58:44.837Z,67.90
2018-09-13T16:01:13.310Z,67.60
2018-09-13T16:03:41.779Z,67.90
2018-09-13T16:06:10.116Z,69.90
2018-09-13T16:08:38.484Z,72.70
2018-09-13T16:11:06.858Z,70.90
2018-09-13T16:13:35.260Z,72.00
2018-09-13T16:16:03.584Z,71.20
2018-09-13T16:18:35.533Z,71.70
2018-09-13T16:21:04.054Z,72.00
2018-09-13T16:23:32.387Z,73.20
2018-09-13T16:26:00.910Z,72.90
2018-09-13T16:28:29.363Z,72.30
2018-09-13T16:30:57.804Z,72.70
2018-09-13T16:33:26.216Z,73.70
2018-09-13T16:35:55.778Z,74.80
2018-09-13T16:38:30.617Z,74.50
2018-09-13T16:41:08.112Z,74.90
2018-09-13T16:43:44.403Z,75.10
2018-09-13T16:46:18.471Z,75.40
2018-09-13T16:48:48.820Z,74.60
2018-09-13T16:51:17.610Z,76.60
2018-09-13T16:53:48.143Z,76.70
2018-09-13T16:56:17.085Z,77.70
2018-09-13T16:58:45.849Z,78.40
2018-09-13T17:01:15.267Z,79.20
2018-09-13T17:03:46.013Z,78.00
2018-09-13T17:06:16.065Z,78.00
2018-09-13T17:08:45.499Z,78.40
2018-09-13T17:11:33.286Z,78.60
2018-09-13T17:14:03.319Z,78.00
2018-09-13T17:16:34.781Z,78.60
2018-09-13T17:19:16.159Z,78.10
2018-09-13T17:21:48.249Z,78.60
2018-09-13T17:24:17.415Z,78.60
2018-09-13T17:26:48.794Z,79.50
2018-09-13T17:29:17.167Z,79.00
2018-09-13T17:31:46.681Z,79.50
2018-09-13T17:34:33.182Z,79.40
2018-09-13T17:37:03.014Z,80.10
2018-09-13T17:39:32.406Z,80.90
2018-09-13T17:42:04.146Z,82.10
2018-09-13T17:44:36.088Z,81.10
2018-09-13T17:47:06.596Z,81.20
2018-09-13T17:49:36.553Z,80.80
2018-09-13T17:52:04.917Z,82.00
2018-09-13T17:54:33.265Z,81.50
2018-09-13T17:57:01.992Z,82.10
2018-09-13T17:59:30.492Z,84.70
2018-09-13T18:01:58.909Z,86.40
2018-09-13T18:04:27.340Z,84.20
2018-09-13T18:06:55.713Z,82.70
2018-09-13T18:09:24.142Z,83.30
2018-09-13T18:11:52.601Z,83.60
2018-09-13T18:14:21.058Z,87.00
2018-09-13T18:16:49.540Z,89.10
2018-09-13T18:19:17.964Z,89.90
2018-09-13T18:21:46.319Z,90.10
2018-09-13T18:24:15.776Z,90.30
2018-09-13T18:26:45.573Z,90.60
2018-09-13T18:29:16.886Z,90.40
2018-09-13T18:31:45.377Z,91.00
2018-09-13T18:34:15.040Z,90.80
2018-09-13T18:36:43.492Z,91.40
2018-09-13T18:39:12.356Z,91.40
2018-09-13T18:42:57.893Z,91.50
2018-09-13T18:45:28.440Z,92.40
2018-09-13T18:48:02.659Z,92.30
2018-09-13T18:50:32.583Z,91.70
2018-09-13T18:53:04.618Z,92.40
2018-09-13T18:55:35.840Z,92.80
2018-09-13T18:58:16.157Z,92.80
2018-09-13T19:00:47.523Z,92.50
2018-09-13T19:03:17.751Z,92.60
2018-09-13T19:05:57.971Z,93.00
2018-09-13T19:08:31.169Z,93.00
2018-09-13T19:11:06.278Z,92.90
2018-09-13T19:13:41.348Z,93.20
2018-09-13T19:16:17.593Z,93.10
2018-09-13T19:18:48.318Z,92.90
2018-09-13T19:21:21.571Z,92.70
2018-09-13T19:23:52.955Z,92.60
2018-09-13T19:26:22.641Z,93.10
2018-09-13T19:28:55.444Z,94.00
2018-09-13T19:31:26.368Z,93.90
2018-09-13T19:33:54.818Z,93.60
2018-09-13T20:02:56.099Z,94.50
2018-09-13T20:05:39.739Z,95.10
2018-09-13T20:08:15.726Z,94.70
2018-09-13T20:10:54.517Z,94.70
2018-09-13T20:13:27.572Z,94.50
2018-09-13T20:18:54.029Z,95.40
2018-09-13T20:21:30.393Z,95.50
2018-09-13T20:24:01.994Z,95.80
2018-09-13T20:26:31.487Z,95.80
2018-09-13T21:03:45.699Z,96.40
2018-09-13T21:06:18.750Z,95.70
2018-09-13T21:11:43.846Z,96.90
2018-09-13T21:14:14.281Z,97.40
2018-09-13T21:16:44.090Z,97.30
2018-09-13T21:19:14.668Z,97.60
2018-09-13T21:21:44.427Z,97.90
2018-09-13T21:24:14.088Z,98.10
2018-09-13T21:26:45.984Z,98.00
2018-09-13T21:29:18.550Z,97.80
2018-09-13T21:31:50.525Z,97.90
2018-09-13T21:34:20.006Z,97.80
2018-09-13T21:36:48.936Z,98.10
2018-09-13T21:39:18.551Z,97.90
2018-09-13T21:41:47.141Z,98.30
2018-09-13T21:44:16.504Z,98.30
2018-09-13T21:46:45.025Z,98.30
2018-09-13T21:49:13.697Z,98.50
2018-09-13T21:51:44.903Z,99.10
2018-09-13T21:54:14.451Z,98.80
2018-09-13T21:56:44.833Z,98.80
2018-09-13T22:02:09.735Z,99.10
2018-09-13T22:04:39.200Z,99.10
2018-09-13T22:07:12.038Z,99.20
2018-09-13T22:09:40.864Z,99.10
2018-09-13T22:12:14.898Z,99.30
2018-09-13T22:14:45.618Z,99.30
2018-09-13T22:17:16.158Z,99.70
2018-09-13T22:19:46.201Z,99.10
2018-09-13T22:22:18.781Z,99.50
2018-09-13T22:24:49.934Z,99.50
2018-09-13T22:27:19.271Z,99.40
2018-09-13T22:29:49.291Z,99.50
2018-09-13T22:32:17.988Z,99.50
2018-09-13T22:34:47.769Z,99.50
2018-09-13T22:37:19.365Z,99.40
2018-09-13T22:39:50.246Z,99.50
2018-09-13T22:42:23.034Z,99.50
2018-09-13T22:44:56.698Z,99.20
2018-09-13T22:47:25.813Z,99.20
2018-09-13T22:49:55.056Z,99.60
2018-09-13T22:52:25.396Z,99.70
2018-09-13T22:54:54.549Z,99.70
2018-09-13T22:57:24.058Z,99.60
2018-09-13T22:59:53.764Z,99.70
2018-09-13T23:02:22.874Z,99.70
2018-09-13T23:04:51.961Z,99.70
2018-09-13T23:07:21.231Z,99.90
2018-09-13T23:09:50.063Z,99.90
2018-09-13T23:12:19.127Z,99.90
2018-09-13T23:14:48.987Z,99.90
2018-09-13T23:17:17.831Z,99.90
2018-09-13T23:19:46.420Z,99.90
2018-09-13T23:22:15.236Z,99.90
2018-09-13T23:24:43.793Z,99.90
2018-09-13T23:27:12.459Z,99.90
2018-09-13T23:29:41.089Z,99.90
2018-09-13T23:32:09.717Z,99.90
2018-09-13T23:34:38.415Z,99.90
2018-09-13T23:37:07.336Z,99.90
2018-09-13T23:39:36.600Z,99.90
2018-09-13T23:42:19.256Z,99.90
2018-09-13T23:44:47.829Z,99.90
2018-09-13T23:47:16.431Z,99.90
2018-09-13T23:49:44.966Z,99.90
2018-09-13T23:52:13.765Z,99.90
2018-09-13T23:54:43.357Z,99.90
2018-09-13T23:57:11.904Z,99.90
2018-09-13T23:59:42.558Z,99.90
